Terminal Aerodrome Forecast
Issued by NWS

Home | Current Version | Previous Version | Graphics & Text | Print | Product List | Glossary On
Versions: 1 2 3 4 5 6 7 8 9 10 11 12 13
000
FTUS45 KGGW 230541
TAFGDV
TAF
KGDV 230541Z 2306/2406 02011G19KT P6SM VCSH BKN060 OVC070
     FM231000 01010KT P6SM -RA OVC040
     FM240300 33008KT P6SM VCSH BKN025=

USA.gov is the U.S. government's official web portal to all federal, state and local government web resources and services.